sensor_id;sensor_type;location;lat;lon;timestamp;P1;durP1;ratioP1;P2;durP2;ratioP2
80199;SDS011;69520;44.900;-0.764;2023-05-19T00:00:42;5.60;;;1.40;;
80199;SDS011;69520;44.900;-0.764;2023-05-19T00:03:09;7.20;;;1.40;;
80199;SDS011;69520;44.900;-0.764;2023-05-19T00:05:37;5.40;;;1.40;;
80199;SDS011;69520;44.900;-0.764;2023-05-19T00:08:10;5.35;;;1.30;;
80199;SDS011;69520;44.900;-0.764;2023-05-19T00:10:37;5.70;;;1.45;;
80199;SDS011;69520;44.900;-0.764;2023-05-19T00:13:03;6.07;;;1.58;;
80199;SDS011;69520;44.900;-0.764;2023-05-19T00:15:29;6.95;;;1.35;;
80199;SDS011;69520;44.900;-0.764;2023-05-19T00:17:55;5.60;;;1.40;;
80199;SDS011;69520;44.900;-0.764;2023-05-19T00:20:21;6.20;;;1.60;;
80199;SDS011;69520;44.900;-0.764;2023-05-19T00:22:47;7.28;;;1.65;;
80199;SDS011;69520;44.900;-0.764;2023-05-19T00:25:15;6.65;;;1.52;;
80199;SDS011;69520;44.900;-0.764;2023-05-19T00:27:41;6.22;;;1.27;;
80199;SDS011;69520;44.900;-0.764;2023-05-19T00:30:07;8.33;;;1.73;;
80199;SDS011;69520;44.900;-0.764;2023-05-19T00:32:33;6.13;;;1.40;;
80199;SDS011;69520;44.900;-0.764;2023-05-19T00:34:59;7.65;;;1.58;;
80199;SDS011;69520;44.900;-0.764;2023-05-19T00:37:25;9.10;;;1.30;;
80199;SDS011;69520;44.900;-0.764;2023-05-19T00:39:51;6.95;;;1.50;;
80199;SDS011;69520;44.900;-0.764;2023-05-19T00:42:17;5.40;;;1.53;;
80199;SDS011;69520;44.900;-0.764;2023-05-19T00:44:44;6.50;;;1.70;;
80199;SDS011;69520;44.900;-0.764;2023-05-19T00:47:10;6.03;;;1.40;;
80199;SDS011;69520;44.900;-0.764;2023-05-19T00:49:36;6.68;;;1.60;;
80199;SDS011;69520;44.900;-0.764;2023-05-19T00:52:02;5.72;;;1.27;;
80199;SDS011;69520;44.900;-0.764;2023-05-19T00:54:31;6.97;;;1.63;;
80199;SDS011;69520;44.900;-0.764;2023-05-19T00:56:57;5.95;;;1.35;;
80199;SDS011;69520;44.900;-0.764;2023-05-19T00:59:23;7.25;;;1.55;;
80199;SDS011;69520;44.900;-0.764;2023-05-19T01:01:49;7.32;;;1.52;;
80199;SDS011;69520;44.900;-0.764;2023-05-19T01:04:17;7.38;;;1.52;;
80199;SDS011;69520;44.900;-0.764;2023-05-19T01:06:45;6.80;;;1.50;;
80199;SDS011;69520;44.900;-0.764;2023-05-19T01:09:12;5.75;;;1.30;;
80199;SDS011;69520;44.900;-0.764;2023-05-19T01:11:38;6.10;;;1.52;;
80199;SDS011;69520;44.900;-0.764;2023-05-19T01:14:04;5.78;;;1.50;;
80199;SDS011;69520;44.900;-0.764;2023-05-19T01:16:31;7.57;;;1.80;;
80199;SDS011;69520;44.900;-0.764;2023-05-19T01:19:09;6.93;;;1.57;;
80199;SDS011;69520;44.900;-0.764;2023-05-19T01:32:05;6.63;;;1.67;;
80199;SDS011;69520;44.900;-0.764;2023-05-19T01:34:31;7.70;;;1.70;;
80199;SDS011;69520;44.900;-0.764;2023-05-19T01:36:58;6.38;;;1.90;;
80199;SDS011;69520;44.900;-0.764;2023-05-19T01:39:25;6.45;;;1.73;;
80199;SDS011;69520;44.900;-0.764;2023-05-19T01:41:52;6.35;;;1.65;;
80199;SDS011;69520;44.900;-0.764;2023-05-19T01:44:18;7.93;;;1.60;;
80199;SDS011;69520;44.900;-0.764;2023-05-19T01:46:46;7.20;;;1.93;;
80199;SDS011;69520;44.900;-0.764;2023-05-19T01:49:12;5.60;;;1.60;;
80199;SDS011;69520;44.900;-0.764;2023-05-19T01:51:39;5.80;;;1.65;;
80199;SDS011;69520;44.900;-0.764;2023-05-19T01:54:05;5.40;;;1.77;;
80199;SDS011;69520;44.900;-0.764;2023-05-19T01:56:48;6.50;;;1.65;;
80199;SDS011;69520;44.900;-0.764;2023-05-19T01:59:27;6.20;;;1.80;;
80199;SDS011;69520;44.900;-0.764;2023-05-19T02:01:56;6.75;;;1.65;;
80199;SDS011;69520;44.900;-0.764;2023-05-19T02:04:31;8.15;;;1.90;;
80199;SDS011;69520;44.900;-0.764;2023-05-19T02:07:14;5.10;;;1.58;;
80199;SDS011;69520;44.900;-0.764;2023-05-19T02:10:03;9.27;;;1.98;;
80199;SDS011;69520;44.900;-0.764;2023-05-19T02:12:33;7.10;;;1.67;;
80199;SDS011;69520;44.900;-0.764;2023-05-19T02:15:08;7.07;;;1.80;;
80199;SDS011;69520;44.900;-0.764;2023-05-19T02:17:37;6.82;;;1.90;;
80199;SDS011;69520;44.900;-0.764;2023-05-19T02:20:05;7.47;;;1.77;;
80199;SDS011;69520;44.900;-0.764;2023-05-19T02:22:32;7.43;;;2.03;;
80199;SDS011;69520;44.900;-0.764;2023-05-19T02:24:58;7.47;;;2.07;;
80199;SDS011;69520;44.900;-0.764;2023-05-19T02:27:24;8.52;;;2.35;;
80199;SDS011;69520;44.900;-0.764;2023-05-19T02:29:51;7.38;;;1.90;;
80199;SDS011;69520;44.900;-0.764;2023-05-19T02:32:17;7.18;;;2.08;;
80199;SDS011;69520;44.900;-0.764;2023-05-19T02:34:43;8.20;;;2.00;;
80199;SDS011;69520;44.900;-0.764;2023-05-19T02:37:12;7.40;;;1.90;;
80199;SDS011;69520;44.900;-0.764;2023-05-19T02:39:39;6.43;;;2.05;;
80199;SDS011;69520;44.900;-0.764;2023-05-19T02:42:05;7.13;;;1.98;;
80199;SDS011;69520;44.900;-0.764;2023-05-19T02:44:31;7.82;;;1.95;;
80199;SDS011;69520;44.900;-0.764;2023-05-19T02:46:57;7.00;;;1.83;;
80199;SDS011;69520;44.900;-0.764;2023-05-19T02:49:23;7.27;;;1.80;;
80199;SDS011;69520;44.900;-0.764;2023-05-19T02:51:49;6.95;;;1.88;;
80199;SDS011;69520;44.900;-0.764;2023-05-19T02:54:15;8.68;;;2.10;;
80199;SDS011;69520;44.900;-0.764;2023-05-19T02:56:41;7.03;;;2.15;;
80199;SDS011;69520;44.900;-0.764;2023-05-19T02:59:07;6.00;;;1.70;;
80199;SDS011;69520;44.900;-0.764;2023-05-19T03:01:33;7.10;;;2.00;;
80199;SDS011;69520;44.900;-0.764;2023-05-19T03:04:01;8.02;;;2.03;;
80199;SDS011;69520;44.900;-0.764;2023-05-19T03:06:27;5.80;;;1.90;;
80199;SDS011;69520;44.900;-0.764;2023-05-19T03:08:53;6.97;;;2.10;;
80199;SDS011;69520;44.900;-0.764;2023-05-19T03:11:19;7.43;;;2.03;;
80199;SDS011;69520;44.900;-0.764;2023-05-19T03:13:47;8.77;;;2.40;;
80199;SDS011;69520;44.900;-0.764;2023-05-19T03:16:13;6.47;;;1.75;;
80199;SDS011;69520;44.900;-0.764;2023-05-19T03:18:39;6.00;;;2.10;;
80199;SDS011;69520;44.900;-0.764;2023-05-19T03:21:06;7.05;;;1.80;;
80199;SDS011;69520;44.900;-0.764;2023-05-19T03:23:32;6.53;;;2.00;;
80199;SDS011;69520;44.900;-0.764;2023-05-19T03:25:58;7.97;;;2.47;;
80199;SDS011;69520;44.900;-0.764;2023-05-19T03:28:25;9.35;;;2.35;;
80199;SDS011;69520;44.900;-0.764;2023-05-19T03:30:51;7.60;;;2.10;;
80199;SDS011;69520;44.900;-0.764;2023-05-19T03:33:17;6.47;;;1.90;;
80199;SDS011;69520;44.900;-0.764;2023-05-19T03:35:43;9.65;;;2.20;;
80199;SDS011;69520;44.900;-0.764;2023-05-19T03:38:09;7.37;;;2.30;;
80199;SDS011;69520;44.900;-0.764;2023-05-19T03:40:35;6.65;;;2.05;;
80199;SDS011;69520;44.900;-0.764;2023-05-19T03:43:02;7.32;;;2.20;;
80199;SDS011;69520;44.900;-0.764;2023-05-19T03:45:28;7.55;;;2.80;;
80199;SDS011;69520;44.900;-0.764;2023-05-19T03:47:54;7.80;;;2.10;;
80199;SDS011;69520;44.900;-0.764;2023-05-19T03:50:20;9.03;;;2.47;;
80199;SDS011;69520;44.900;-0.764;2023-05-19T03:52:47;9.50;;;2.05;;
80199;SDS011;69520;44.900;-0.764;2023-05-19T03:55:13;7.75;;;2.13;;
80199;SDS011;69520;44.900;-0.764;2023-05-19T03:57:40;7.13;;;2.00;;
80199;SDS011;69520;44.900;-0.764;2023-05-19T04:00:07;7.25;;;2.25;;
80199;SDS011;69520;44.900;-0.764;2023-05-19T04:02:35;7.63;;;2.17;;
80199;SDS011;69520;44.900;-0.764;2023-05-19T04:05:01;7.68;;;2.78;;
80199;SDS011;69520;44.900;-0.764;2023-05-19T04:07:29;8.60;;;2.38;;
80199;SDS011;69520;44.900;-0.764;2023-05-19T04:09:55;8.32;;;2.40;;
80199;SDS011;69520;44.900;-0.764;2023-05-19T04:12:21;8.32;;;2.30;;
80199;SDS011;69520;44.900;-0.764;2023-05-19T04:14:47;7.03;;;2.20;;
80199;SDS011;69520;44.900;-0.764;2023-05-19T04:17:13;6.75;;;2.38;;
80199;SDS011;69520;44.900;-0.764;2023-05-19T04:19:39;6.97;;;2.30;;
80199;SDS011;69520;44.900;-0.764;2023-05-19T04:22:05;6.78;;;2.30;;
80199;SDS011;69520;44.900;-0.764;2023-05-19T04:24:31;8.32;;;2.47;;
80199;SDS011;69520;44.900;-0.764;2023-05-19T04:26:57;7.63;;;2.17;;
80199;SDS011;69520;44.900;-0.764;2023-05-19T04:29:28;8.20;;;2.50;;
80199;SDS011;69520;44.900;-0.764;2023-05-19T04:31:54;6.40;;;2.08;;
80199;SDS011;69520;44.900;-0.764;2023-05-19T04:34:24;9.40;;;2.10;;
80199;SDS011;69520;44.900;-0.764;2023-05-19T04:36:52;8.30;;;2.42;;
80199;SDS011;69520;44.900;-0.764;2023-05-19T04:39:19;8.80;;;2.33;;
80199;SDS011;69520;44.900;-0.764;2023-05-19T04:41:45;7.10;;;2.20;;
80199;SDS011;69520;44.900;-0.764;2023-05-19T04:44:12;6.38;;;2.20;;
80199;SDS011;69520;44.900;-0.764;2023-05-19T04:46:41;8.13;;;2.40;;
80199;SDS011;69520;44.900;-0.764;2023-05-19T04:49:09;10.48;;;2.28;;
80199;SDS011;69520;44.900;-0.764;2023-05-19T04:51:37;7.38;;;2.50;;
80199;SDS011;69520;44.900;-0.764;2023-05-19T04:54:08;8.27;;;2.37;;
80199;SDS011;69520;44.900;-0.764;2023-05-19T04:56:34;8.03;;;2.27;;
80199;SDS011;69520;44.900;-0.764;2023-05-19T04:59:00;7.53;;;2.47;;
80199;SDS011;69520;44.900;-0.764;2023-05-19T05:01:26;7.50;;;2.33;;
80199;SDS011;69520;44.900;-0.764;2023-05-19T05:03:55;7.78;;;2.40;;
80199;SDS011;69520;44.900;-0.764;2023-05-19T05:06:22;7.55;;;2.85;;
80199;SDS011;69520;44.900;-0.764;2023-05-19T05:08:49;8.80;;;3.00;;
80199;SDS011;69520;44.900;-0.764;2023-05-19T05:11:16;8.82;;;2.90;;
80199;SDS011;69520;44.900;-0.764;2023-05-19T05:13:42;9.02;;;3.00;;
80199;SDS011;69520;44.900;-0.764;2023-05-19T05:16:08;7.90;;;2.65;;
80199;SDS011;69520;44.900;-0.764;2023-05-19T05:18:35;8.90;;;2.38;;
80199;SDS011;69520;44.900;-0.764;2023-05-19T05:21:02;8.60;;;2.60;;
80199;SDS011;69520;44.900;-0.764;2023-05-19T05:23:29;6.93;;;2.50;;
80199;SDS011;69520;44.900;-0.764;2023-05-19T05:25:55;8.40;;;2.67;;
80199;SDS011;69520;44.900;-0.764;2023-05-19T05:28:21;7.57;;;2.63;;
80199;SDS011;69520;44.900;-0.764;2023-05-19T05:30:47;8.95;;;2.88;;
80199;SDS011;69520;44.900;-0.764;2023-05-19T05:33:14;8.00;;;2.50;;
80199;SDS011;69520;44.900;-0.764;2023-05-19T05:35:41;12.55;;;2.92;;
80199;SDS011;69520;44.900;-0.764;2023-05-19T05:38:07;7.53;;;2.58;;
80199;SDS011;69520;44.900;-0.764;2023-05-19T05:40:35;9.15;;;2.60;;
80199;SDS011;69520;44.900;-0.764;2023-05-19T05:43:01;8.30;;;2.42;;
80199;SDS011;69520;44.900;-0.764;2023-05-19T05:45:27;7.67;;;2.40;;
80199;SDS011;69520;44.900;-0.764;2023-05-19T05:47:53;8.00;;;3.00;;
80199;SDS011;69520;44.900;-0.764;2023-05-19T05:50:19;10.02;;;2.83;;
80199;SDS011;69520;44.900;-0.764;2023-05-19T05:52:46;7.43;;;2.40;;
80199;SDS011;69520;44.900;-0.764;2023-05-19T05:55:13;10.73;;;2.80;;
80199;SDS011;69520;44.900;-0.764;2023-05-19T05:57:39;8.93;;;2.80;;
80199;SDS011;69520;44.900;-0.764;2023-05-19T06:00:08;9.70;;;2.53;;
80199;SDS011;69520;44.900;-0.764;2023-05-19T06:02:39;7.90;;;2.75;;
80199;SDS011;69520;44.900;-0.764;2023-05-19T06:05:05;7.72;;;2.58;;
80199;SDS011;69520;44.900;-0.764;2023-05-19T06:07:31;8.80;;;2.60;;
80199;SDS011;69520;44.900;-0.764;2023-05-19T06:09:57;9.90;;;2.93;;
80199;SDS011;69520;44.900;-0.764;2023-05-19T06:12:23;8.60;;;2.42;;
80199;SDS011;69520;44.900;-0.764;2023-05-19T06:14:51;10.68;;;2.50;;
80199;SDS011;69520;44.900;-0.764;2023-05-19T06:17:17;10.55;;;2.55;;
80199;SDS011;69520;44.900;-0.764;2023-05-19T06:19:43;7.85;;;2.80;;
80199;SDS011;69520;44.900;-0.764;2023-05-19T06:22:09;8.03;;;3.00;;
80199;SDS011;69520;44.900;-0.764;2023-05-19T06:24:35;9.30;;;2.50;;
80199;SDS011;69520;44.900;-0.764;2023-05-19T06:27:01;8.82;;;2.65;;
80199;SDS011;69520;44.900;-0.764;2023-05-19T06:29:27;9.95;;;3.08;;
80199;SDS011;69520;44.900;-0.764;2023-05-19T06:31:53;8.07;;;2.70;;
80199;SDS011;69520;44.900;-0.764;2023-05-19T06:34:20;10.07;;;2.80;;
80199;SDS011;69520;44.900;-0.764;2023-05-19T06:36:46;8.90;;;2.60;;
80199;SDS011;69520;44.900;-0.764;2023-05-19T06:39:12;7.10;;;2.28;;
80199;SDS011;69520;44.900;-0.764;2023-05-19T06:41:38;6.55;;;2.42;;
80199;SDS011;69520;44.900;-0.764;2023-05-19T06:44:05;7.43;;;2.60;;
80199;SDS011;69520;44.900;-0.764;2023-05-19T06:46:34;7.50;;;2.60;;
80199;SDS011;69520;44.900;-0.764;2023-05-19T06:49:01;9.02;;;2.55;;
80199;SDS011;69520;44.900;-0.764;2023-05-19T06:51:27;7.15;;;2.50;;
80199;SDS011;69520;44.900;-0.764;2023-05-19T06:53:53;10.07;;;2.50;;
80199;SDS011;69520;44.900;-0.764;2023-05-19T06:56:19;8.75;;;3.00;;
80199;SDS011;69520;44.900;-0.764;2023-05-19T06:58:46;7.80;;;2.50;;
80199;SDS011;69520;44.900;-0.764;2023-05-19T07:01:12;7.43;;;2.72;;
80199;SDS011;69520;44.900;-0.764;2023-05-19T07:03:38;6.82;;;2.58;;
80199;SDS011;69520;44.900;-0.764;2023-05-19T07:06:04;8.90;;;2.88;;
80199;SDS011;69520;44.900;-0.764;2023-05-19T07:08:30;8.98;;;2.65;;
80199;SDS011;69520;44.900;-0.764;2023-05-19T07:10:57;8.20;;;2.87;;
80199;SDS011;69520;44.900;-0.764;2023-05-19T07:13:23;7.13;;;2.55;;
80199;SDS011;69520;44.900;-0.764;2023-05-19T07:15:49;9.38;;;2.85;;
80199;SDS011;69520;44.900;-0.764;2023-05-19T07:18:16;9.27;;;2.72;;
80199;SDS011;69520;44.900;-0.764;2023-05-19T07:20:43;5.78;;;2.40;;
80199;SDS011;69520;44.900;-0.764;2023-05-19T07:23:09;8.37;;;2.50;;
80199;SDS011;69520;44.900;-0.764;2023-05-19T07:25:35;8.68;;;2.53;;
80199;SDS011;69520;44.900;-0.764;2023-05-19T07:28:01;10.35;;;2.70;;
80199;SDS011;69520;44.900;-0.764;2023-05-19T07:30:27;7.75;;;2.90;;
80199;SDS011;69520;44.900;-0.764;2023-05-19T07:32:53;8.18;;;2.90;;
80199;SDS011;69520;44.900;-0.764;2023-05-19T07:35:20;9.87;;;3.00;;
80199;SDS011;69520;44.900;-0.764;2023-05-19T07:37:50;7.95;;;2.90;;
80199;SDS011;69520;44.900;-0.764;2023-05-19T07:40:16;7.03;;;2.42;;
80199;SDS011;69520;44.900;-0.764;2023-05-19T07:42:42;9.43;;;2.90;;
80199;SDS011;69520;44.900;-0.764;2023-05-19T07:45:08;8.85;;;2.55;;
80199;SDS011;69520;44.900;-0.764;2023-05-19T07:47:35;8.70;;;2.33;;
80199;SDS011;69520;44.900;-0.764;2023-05-19T07:50:01;11.00;;;2.70;;
80199;SDS011;69520;44.900;-0.764;2023-05-19T07:52:27;9.35;;;3.45;;
80199;SDS011;69520;44.900;-0.764;2023-05-19T07:54:53;9.70;;;3.10;;
80199;SDS011;69520;44.900;-0.764;2023-05-19T07:57:19;6.70;;;2.70;;
80199;SDS011;69520;44.900;-0.764;2023-05-19T07:59:45;8.93;;;2.83;;
80199;SDS011;69520;44.900;-0.764;2023-05-19T08:02:11;9.40;;;3.13;;
80199;SDS011;69520;44.900;-0.764;2023-05-19T08:04:37;8.25;;;3.20;;
80199;SDS011;69520;44.900;-0.764;2023-05-19T08:07:03;8.68;;;2.65;;
80199;SDS011;69520;44.900;-0.764;2023-05-19T08:09:29;8.88;;;2.63;;
80199;SDS011;69520;44.900;-0.764;2023-05-19T08:11:55;9.50;;;2.77;;
80199;SDS011;69520;44.900;-0.764;2023-05-19T08:14:21;7.47;;;2.63;;
80199;SDS011;69520;44.900;-0.764;2023-05-19T08:16:48;10.90;;;2.70;;
80199;SDS011;69520;44.900;-0.764;2023-05-19T08:19:14;8.38;;;2.67;;
80199;SDS011;69520;44.900;-0.764;2023-05-19T08:21:40;10.50;;;2.85;;
80199;SDS011;69520;44.900;-0.764;2023-05-19T08:24:06;6.90;;;2.27;;
80199;SDS011;69520;44.900;-0.764;2023-05-19T08:26:32;7.05;;;2.70;;
80199;SDS011;69520;44.900;-0.764;2023-05-19T08:28:58;8.45;;;2.70;;
80199;SDS011;69520;44.900;-0.764;2023-05-19T08:31:24;9.13;;;2.80;;
80199;SDS011;69520;44.900;-0.764;2023-05-19T08:33:51;8.73;;;2.78;;
80199;SDS011;69520;44.900;-0.764;2023-05-19T08:36:17;7.83;;;2.60;;
80199;SDS011;69520;44.900;-0.764;2023-05-19T08:38:43;9.47;;;2.70;;
80199;SDS011;69520;44.900;-0.764;2023-05-19T08:41:09;8.20;;;2.72;;
80199;SDS011;69520;44.900;-0.764;2023-05-19T08:43:35;10.55;;;3.15;;
80199;SDS011;69520;44.900;-0.764;2023-05-19T08:46:03;10.38;;;2.63;;
80199;SDS011;69520;44.900;-0.764;2023-05-19T08:48:31;8.27;;;2.38;;
80199;SDS011;69520;44.900;-0.764;2023-05-19T08:53:47;8.63;;;2.85;;
80199;SDS011;69520;44.900;-0.764;2023-05-19T08:56:31;8.30;;;2.83;;
80199;SDS011;69520;44.900;-0.764;2023-05-19T08:58:57;8.15;;;2.47;;
80199;SDS011;69520;44.900;-0.764;2023-05-19T09:01:24;7.82;;;2.53;;
80199;SDS011;69520;44.900;-0.764;2023-05-19T09:03:52;8.87;;;2.53;;
80199;SDS011;69520;44.900;-0.764;2023-05-19T09:06:19;9.10;;;2.72;;
80199;SDS011;69520;44.900;-0.764;2023-05-19T09:08:45;6.32;;;2.17;;
80199;SDS011;69520;44.900;-0.764;2023-05-19T09:11:12;7.63;;;2.30;;
80199;SDS011;69520;44.900;-0.764;2023-05-19T09:13:38;7.75;;;2.70;;
80199;SDS011;69520;44.900;-0.764;2023-05-19T09:16:05;7.57;;;2.80;;
80199;SDS011;69520;44.900;-0.764;2023-05-19T09:18:32;8.32;;;2.53;;
80199;SDS011;69520;44.900;-0.764;2023-05-19T09:20:58;8.18;;;2.72;;
80199;SDS011;69520;44.900;-0.764;2023-05-19T09:23:30;6.25;;;2.90;;
80199;SDS011;69520;44.900;-0.764;2023-05-19T09:25:59;8.65;;;2.40;;
80199;SDS011;69520;44.900;-0.764;2023-05-19T09:28:26;7.87;;;2.53;;
80199;SDS011;69520;44.900;-0.764;2023-05-19T09:33:26;8.80;;;2.97;;
80199;SDS011;69520;44.900;-0.764;2023-05-19T09:35:53;8.88;;;2.30;;
80199;SDS011;69520;44.900;-0.764;2023-05-19T09:38:20;7.75;;;2.35;;
80199;SDS011;69520;44.900;-0.764;2023-05-19T09:40:47;7.33;;;2.40;;
80199;SDS011;69520;44.900;-0.764;2023-05-19T09:43:14;9.30;;;2.58;;
80199;SDS011;69520;44.900;-0.764;2023-05-19T09:45:40;7.47;;;2.47;;
80199;SDS011;69520;44.900;-0.764;2023-05-19T09:48:06;8.43;;;2.75;;
80199;SDS011;69520;44.900;-0.764;2023-05-19T09:50:32;7.93;;;2.33;;
80199;SDS011;69520;44.900;-0.764;2023-05-19T09:52:59;7.47;;;2.57;;
80199;SDS011;69520;44.900;-0.764;2023-05-19T09:55:27;7.32;;;2.50;;
80199;SDS011;69520;44.900;-0.764;2023-05-19T09:57:54;9.00;;;2.30;;
80199;SDS011;69520;44.900;-0.764;2023-05-19T10:00:21;8.93;;;2.28;;
80199;SDS011;69520;44.900;-0.764;2023-05-19T10:02:47;6.22;;;2.50;;
80199;SDS011;69520;44.900;-0.764;2023-05-19T10:05:15;8.17;;;2.40;;
80199;SDS011;69520;44.900;-0.764;2023-05-19T10:07:43;9.25;;;2.40;;
80199;SDS011;69520;44.900;-0.764;2023-05-19T10:10:12;9.45;;;2.78;;
80199;SDS011;69520;44.900;-0.764;2023-05-19T10:12:39;7.28;;;2.33;;
80199;SDS011;69520;44.900;-0.764;2023-05-19T10:15:09;9.98;;;2.55;;
80199;SDS011;69520;44.900;-0.764;2023-05-19T10:17:39;7.50;;;2.70;;
80199;SDS011;69520;44.900;-0.764;2023-05-19T10:20:08;7.70;;;2.57;;
80199;SDS011;69520;44.900;-0.764;2023-05-19T10:22:35;6.90;;;2.38;;
80199;SDS011;69520;44.900;-0.764;2023-05-19T10:25:02;7.68;;;3.00;;
80199;SDS011;69520;44.900;-0.764;2023-05-19T10:27:28;9.20;;;2.70;;
80199;SDS011;69520;44.900;-0.764;2023-05-19T10:29:56;7.13;;;2.50;;
80199;SDS011;69520;44.900;-0.764;2023-05-19T10:32:25;7.57;;;2.60;;
80199;SDS011;69520;44.900;-0.764;2023-05-19T10:40:11;6.20;;;2.30;;
80199;SDS011;69520;44.900;-0.764;2023-05-19T10:42:44;9.27;;;2.90;;
80199;SDS011;69520;44.900;-0.764;2023-05-19T10:47:41;8.95;;;2.50;;
80199;SDS011;69520;44.900;-0.764;2023-05-19T10:50:07;9.45;;;2.40;;
80199;SDS011;69520;44.900;-0.764;2023-05-19T10:52:37;8.43;;;2.90;;
80199;SDS011;69520;44.900;-0.764;2023-05-19T10:55:03;7.68;;;2.78;;
80199;SDS011;69520;44.900;-0.764;2023-05-19T10:57:32;7.40;;;2.60;;
80199;SDS011;69520;44.900;-0.764;2023-05-19T11:00:03;8.10;;;2.50;;
80199;SDS011;69520;44.900;-0.764;2023-05-19T11:02:36;9.02;;;2.60;;
80199;SDS011;69520;44.900;-0.764;2023-05-19T11:05:06;6.93;;;2.45;;
80199;SDS011;69520;44.900;-0.764;2023-05-19T11:07:33;8.07;;;2.70;;
80199;SDS011;69520;44.900;-0.764;2023-05-19T11:10:00;10.77;;;2.53;;
80199;SDS011;69520;44.900;-0.764;2023-05-19T11:12:29;7.80;;;2.47;;
80199;SDS011;69520;44.900;-0.764;2023-05-19T11:15:04;7.72;;;2.30;;
80199;SDS011;69520;44.900;-0.764;2023-05-19T11:17:31;8.00;;;2.58;;
80199;SDS011;69520;44.900;-0.764;2023-05-19T11:19:59;9.98;;;2.60;;
80199;SDS011;69520;44.900;-0.764;2023-05-19T11:22:26;9.70;;;2.67;;
80199;SDS011;69520;44.900;-0.764;2023-05-19T11:24:55;6.97;;;2.25;;
80199;SDS011;69520;44.900;-0.764;2023-05-19T11:29:51;6.93;;;2.30;;
80199;SDS011;69520;44.900;-0.764;2023-05-19T11:32:18;8.05;;;2.58;;
80199;SDS011;69520;44.900;-0.764;2023-05-19T11:34:45;6.93;;;2.37;;
80199;SDS011;69520;44.900;-0.764;2023-05-19T11:37:12;7.55;;;2.55;;
80199;SDS011;69520;44.900;-0.764;2023-05-19T11:39:38;6.55;;;2.40;;
80199;SDS011;69520;44.900;-0.764;2023-05-19T11:42:04;6.32;;;2.33;;
80199;SDS011;69520;44.900;-0.764;2023-05-19T11:44:37;9.35;;;2.33;;
80199;SDS011;69520;44.900;-0.764;2023-05-19T11:47:05;6.87;;;2.33;;
80199;SDS011;69520;44.900;-0.764;2023-05-19T11:49:31;6.50;;;2.28;;
80199;SDS011;69520;44.900;-0.764;2023-05-19T11:51:58;7.53;;;2.38;;
80199;SDS011;69520;44.900;-0.764;2023-05-19T11:54:32;5.75;;;2.30;;
80199;SDS011;69520;44.900;-0.764;2023-05-19T11:57:00;7.50;;;2.20;;
80199;SDS011;69520;44.900;-0.764;2023-05-19T11:59:34;6.73;;;2.47;;
80199;SDS011;69520;44.900;-0.764;2023-05-19T12:02:00;7.28;;;2.30;;
80199;SDS011;69520;44.900;-0.764;2023-05-19T12:04:30;6.88;;;2.30;;
80199;SDS011;69520;44.900;-0.764;2023-05-19T12:06:56;6.97;;;2.60;;
80199;SDS011;69520;44.900;-0.764;2023-05-19T12:09:22;6.95;;;2.42;;
80199;SDS011;69520;44.900;-0.764;2023-05-19T12:11:49;7.33;;;2.33;;
80199;SDS011;69520;44.900;-0.764;2023-05-19T12:14:16;8.93;;;2.47;;
80199;SDS011;69520;44.900;-0.764;2023-05-19T12:16:42;8.98;;;2.70;;
80199;SDS011;69520;44.900;-0.764;2023-05-19T12:19:08;6.50;;;2.30;;
80199;SDS011;69520;44.900;-0.764;2023-05-19T12:21:34;6.15;;;2.10;;
80199;SDS011;69520;44.900;-0.764;2023-05-19T12:24:00;6.67;;;2.47;;
80199;SDS011;69520;44.900;-0.764;2023-05-19T12:26:27;7.32;;;2.70;;
80199;SDS011;69520;44.900;-0.764;2023-05-19T12:28:53;8.73;;;2.30;;
80199;SDS011;69520;44.900;-0.764;2023-05-19T12:31:20;6.25;;;2.28;;
80199;SDS011;69520;44.900;-0.764;2023-05-19T12:33:49;7.80;;;2.40;;
80199;SDS011;69520;44.900;-0.764;2023-05-19T12:36:16;8.53;;;2.70;;
80199;SDS011;69520;44.900;-0.764;2023-05-19T12:38:42;7.10;;;2.47;;
80199;SDS011;69520;44.900;-0.764;2023-05-19T12:41:11;9.73;;;2.30;;
80199;SDS011;69520;44.900;-0.764;2023-05-19T12:43:37;7.10;;;2.60;;
80199;SDS011;69520;44.900;-0.764;2023-05-19T12:46:10;9.40;;;2.65;;
80199;SDS011;69520;44.900;-0.764;2023-05-19T12:48:40;7.30;;;2.47;;
80199;SDS011;69520;44.900;-0.764;2023-05-19T12:51:06;9.57;;;2.55;;
80199;SDS011;69520;44.900;-0.764;2023-05-19T12:53:32;7.35;;;2.47;;
80199;SDS011;69520;44.900;-0.764;2023-05-19T12:55:58;7.18;;;2.63;;
80199;SDS011;69520;44.900;-0.764;2023-05-19T12:58:24;11.75;;;2.97;;
80199;SDS011;69520;44.900;-0.764;2023-05-19T13:00:50;7.67;;;2.80;;
80199;SDS011;69520;44.900;-0.764;2023-05-19T13:03:21;7.20;;;2.60;;
80199;SDS011;69520;44.900;-0.764;2023-05-19T13:05:48;9.63;;;2.95;;
80199;SDS011;69520;44.900;-0.764;2023-05-19T13:08:15;8.70;;;2.70;;
80199;SDS011;69520;44.900;-0.764;2023-05-19T13:10:42;8.43;;;2.58;;
80199;SDS011;69520;44.900;-0.764;2023-05-19T13:13:09;8.60;;;2.93;;
80199;SDS011;69520;44.900;-0.764;2023-05-19T13:15:36;8.38;;;2.63;;
80199;SDS011;69520;44.900;-0.764;2023-05-19T13:18:03;7.07;;;2.38;;
80199;SDS011;69520;44.900;-0.764;2023-05-19T13:20:32;10.55;;;2.83;;
80199;SDS011;69520;44.900;-0.764;2023-05-19T13:22:59;6.72;;;2.60;;
80199;SDS011;69520;44.900;-0.764;2023-05-19T13:25:25;6.87;;;2.70;;
80199;SDS011;69520;44.900;-0.764;2023-05-19T13:27:51;8.13;;;3.08;;
80199;SDS011;69520;44.900;-0.764;2023-05-19T13:30:18;7.47;;;2.70;;
80199;SDS011;69520;44.900;-0.764;2023-05-19T13:32:45;8.00;;;2.60;;
80199;SDS011;69520;44.900;-0.764;2023-05-19T13:35:11;8.40;;;3.13;;
80199;SDS011;69520;44.900;-0.764;2023-05-19T13:37:40;7.23;;;2.77;;
80199;SDS011;69520;44.900;-0.764;2023-05-19T13:40:06;6.88;;;2.45;;
80199;SDS011;69520;44.900;-0.764;2023-05-19T13:42:32;7.88;;;2.72;;
80199;SDS011;69520;44.900;-0.764;2023-05-19T13:44:59;7.25;;;2.55;;
80199;SDS011;69520;44.900;-0.764;2023-05-19T13:47:25;11.88;;;2.67;;
80199;SDS011;69520;44.900;-0.764;2023-05-19T13:49:51;7.43;;;2.63;;
80199;SDS011;69520;44.900;-0.764;2023-05-19T13:52:17;6.53;;;2.53;;
80199;SDS011;69520;44.900;-0.764;2023-05-19T13:54:44;6.40;;;2.40;;
80199;SDS011;69520;44.900;-0.764;2023-05-19T13:57:10;9.07;;;2.42;;
80199;SDS011;69520;44.900;-0.764;2023-05-19T13:59:36;8.27;;;2.53;;
80199;SDS011;69520;44.900;-0.764;2023-05-19T14:02:03;6.63;;;2.43;;
80199;SDS011;69520;44.900;-0.764;2023-05-19T14:04:30;6.47;;;2.35;;
80199;SDS011;69520;44.900;-0.764;2023-05-19T14:06:56;7.55;;;2.53;;
80199;SDS011;69520;44.900;-0.764;2023-05-19T14:09:22;5.93;;;2.40;;
80199;SDS011;69520;44.900;-0.764;2023-05-19T14:11:48;8.10;;;2.50;;
80199;SDS011;69520;44.900;-0.764;2023-05-19T14:14:14;6.53;;;2.70;;
80199;SDS011;69520;44.900;-0.764;2023-05-19T14:16:41;6.55;;;2.40;;
80199;SDS011;69520;44.900;-0.764;2023-05-19T14:19:07;8.77;;;2.78;;
80199;SDS011;69520;44.900;-0.764;2023-05-19T14:21:33;7.78;;;2.83;;
80199;SDS011;69520;44.900;-0.764;2023-05-19T14:24:00;6.60;;;2.47;;
80199;SDS011;69520;44.900;-0.764;2023-05-19T14:26:26;7.50;;;2.30;;
80199;SDS011;69520;44.900;-0.764;2023-05-19T14:28:52;8.60;;;2.83;;
80199;SDS011;69520;44.900;-0.764;2023-05-19T14:31:18;7.28;;;3.25;;
80199;SDS011;69520;44.900;-0.764;2023-05-19T14:33:44;7.45;;;2.58;;
80199;SDS011;69520;44.900;-0.764;2023-05-19T14:36:10;7.95;;;2.55;;
80199;SDS011;69520;44.900;-0.764;2023-05-19T14:38:36;7.03;;;2.50;;
80199;SDS011;69520;44.900;-0.764;2023-05-19T14:41:02;7.43;;;2.67;;
80199;SDS011;69520;44.900;-0.764;2023-05-19T14:43:28;8.77;;;2.65;;
80199;SDS011;69520;44.900;-0.764;2023-05-19T14:45:55;8.52;;;2.75;;
80199;SDS011;69520;44.900;-0.764;2023-05-19T14:48:21;7.93;;;2.22;;
80199;SDS011;69520;44.900;-0.764;2023-05-19T14:50:47;6.93;;;2.43;;
80199;SDS011;69520;44.900;-0.764;2023-05-19T14:53:13;6.40;;;2.50;;
80199;SDS011;69520;44.900;-0.764;2023-05-19T14:55:40;6.90;;;2.55;;
80199;SDS011;69520;44.900;-0.764;2023-05-19T14:58:06;9.30;;;2.88;;